Time;durP1;ratioP1;P1;durP2;ratioP2;P2;SDS_P1;SDS_P2;PMS_P1;PMS_P2;Temp;Humidity;BMP_temperature;BMP_pressure;BME280_temperature;BME280_humidity;BME280_pressure;Samples;Min_cycle;Max_cycle;Signal;HPM_P1;HPM_P2
2021/04/09 00:01:15;;;;;;;;;;;21.60;32.70;;;;;;500323;237;1404;-46
2021/04/09 00:03:16;;;;;;;;;;;21.60;32.70;;;;;;500337;237;1198;-46
2021/04/09 00:05:18;;;;;;;;;;;21.70;32.70;;;;;;500684;237;1057;-46
2021/04/09 00:07:19;;;;;;;;;;;21.60;32.60;;;;;;500386;237;1118;-46
2021/04/09 00:09:20;;;;;;;;;;;21.70;32.70;;;;;;500533;237;1120;-46
2021/04/09 00:11:21;;;;;;;;;;;21.60;32.60;;;;;;500374;237;1151;-46
2021/04/09 00:13:23;;;;;;;;;;;21.60;32.70;;;;;;500820;237;1035;-46
2021/04/09 00:15:24;;;;;;;;;;;21.60;32.60;;;;;;500455;237;1027;-46
2021/04/09 00:17:26;;;;;;;;;;;21.60;32.60;;;;;;500360;237;1244;-46
2021/04/09 00:19:27;;;;;;;;;;;21.60;32.60;;;;;;500447;237;2192;-46
2021/04/09 00:21:28;;;;;;;;;;;21.60;32.60;;;;;;500552;237;1084;-46
2021/04/09 00:23:29;;;;;;;;;;;21.60;32.60;;;;;;500485;237;1424;-46
2021/04/09 00:25:31;;;;;;;;;;;21.70;32.70;;;;;;500376;237;1057;-46
2021/04/09 00:27:32;;;;;;;;;;;21.60;32.60;;;;;;500324;237;1187;-46
2021/04/09 00:29:33;;;;;;;;;;;21.60;32.60;;;;;;500553;237;1105;-45
2021/04/09 00:31:35;;;;;;;;;;;21.60;32.70;;;;;;500549;237;1137;-46
2021/04/09 00:33:36;;;;;;;;;;;21.70;32.70;;;;;;500418;237;1247;-46
2021/04/09 00:35:37;;;;;;;;;;;21.60;32.70;;;;;;500543;237;1075;-46
2021/04/09 00:37:38;;;;;;;;;;;21.60;32.60;;;;;;500444;237;1083;-45
2021/04/09 00:39:40;;;;;;;;;;;21.60;32.60;;;;;;500383;237;2156;-46
2021/04/09 00:41:41;;;;;;;;;;;21.70;32.70;;;;;;500353;237;1052;-44
2021/04/09 00:43:42;;;;;;;;;;;21.60;32.60;;;;;;500696;237;1074;-44
2021/04/09 00:45:43;;;;;;;;;;;21.70;32.60;;;;;;500243;237;1053;-44
2021/04/09 00:47:45;;;;;;;;;;;21.70;32.60;;;;;;500637;237;1195;-44
2021/04/09 00:49:46;;;;;;;;;;;21.70;32.60;;;;;;500419;237;1053;-44
2021/04/09 00:51:47;;;;;;;;;;;21.70;32.60;;;;;;500317;237;1040;-46
2021/04/09 00:53:49;;;;;;;;;;;21.60;32.60;;;;;;500572;237;1216;-46
2021/04/09 00:55:50;;;;;;;;;;;21.60;32.70;;;;;;500521;237;1020;-46
2021/04/09 00:57:51;;;;;;;;;;;21.80;32.50;;;;;;500464;237;1066;-46
2021/04/09 00:59:52;;;;;;;;;;;21.50;32.80;;;;;;500696;237;2129;-46
2021/04/09 01:01:54;;;;;;;;;;;21.00;33.60;;;;;;500395;237;1080;-46
2021/04/09 01:03:55;;;;;;;;;;;20.40;34.60;;;;;;500448;237;1199;-45
2021/04/09 01:05:56;;;;;;;;;;;20.10;35.40;;;;;;500331;237;1070;-45
2021/04/09 01:08:00;;;;;;;;;;;19.80;35.80;;;;;;500614;237;1081;-45
2021/04/09 01:09:59;;;;;;;;;;;19.60;36.20;;;;;;500334;237;2148;-46
2021/04/09 01:12:01;;;;;;;;;;;19.40;36.50;;;;;;500388;237;1205;-45
2021/04/09 01:14:02;;;;;;;;;;;19.30;36.70;;;;;;500475;237;1048;-45
2021/04/09 01:16:03;;;;;;;;;;;19.20;36.90;;;;;;500515;237;1123;-45
2021/04/09 01:18:04;;;;;;;;;;;19.10;37.10;;;;;;500449;237;1162;-45
2021/04/09 01:20:06;;;;;;;;;;;19.00;37.20;;;;;;500532;237;2180;-45
2021/04/09 01:22:07;;;;;;;;;;;19.00;37.40;;;;;;500320;237;1167;-46
2021/04/09 01:24:08;;;;;;;;;;;18.90;37.40;;;;;;500471;237;1105;-46
2021/04/09 01:26:09;;;;;;;;;;;18.90;37.50;;;;;;500437;237;1432;-45
2021/04/09 01:28:11;;;;;;;;;;;18.90;37.60;;;;;;500280;237;1216;-45
2021/04/09 01:30:12;;;;;;;;;;;18.80;37.70;;;;;;500413;237;1113;-45
2021/04/09 01:32:13;;;;;;;;;;;18.80;37.70;;;;;;500376;237;1195;-45
2021/04/09 01:34:15;;;;;;;;;;;18.70;37.80;;;;;;500388;237;1133;-45
2021/04/09 01:36:16;;;;;;;;;;;18.60;37.90;;;;;;500360;237;1141;-45
2021/04/09 01:38:17;;;;;;;;;;;18.60;37.90;;;;;;500875;237;984;-45
2021/04/09 01:40:19;;;;;;;;;;;18.60;38.00;;;;;;500485;237;2176;-46
2021/04/09 01:42:20;;;;;;;;;;;18.60;38.00;;;;;;500412;237;1182;-45
2021/04/09 01:44:21;;;;;;;;;;;18.50;38.00;;;;;;500425;237;1148;-45
2021/04/09 01:46:22;;;;;;;;;;;18.50;38.10;;;;;;500340;237;1187;-45
2021/04/09 01:48:23;;;;;;;;;;;18.50;38.20;;;;;;500725;237;1095;-45
2021/04/09 01:50:25;;;;;;;;;;;18.40;38.20;;;;;;500668;237;1085;-45
2021/04/09 01:52:26;;;;;;;;;;;18.40;38.20;;;;;;500371;237;1188;-45
2021/04/09 01:54:27;;;;;;;;;;;18.40;38.20;;;;;;500440;237;1043;-45
2021/04/09 01:56:29;;;;;;;;;;;18.40;38.30;;;;;;500417;237;1413;-45
2021/04/09 01:58:30;;;;;;;;;;;18.30;38.40;;;;;;500946;237;1049;-45
2021/04/09 02:00:31;;;;;;;;;;;18.30;38.40;;;;;;500396;237;2177;-45
2021/04/09 02:02:32;;;;;;;;;;;18.30;38.40;;;;;;500492;237;1058;-45
2021/04/09 02:04:34;;;;;;;;;;;18.20;38.50;;;;;;500618;237;1171;-46
2021/04/09 02:06:35;;;;;;;;;;;18.20;38.50;;;;;;500382;237;1130;-45
2021/04/09 02:08:36;;;;;;;;;;;18.20;38.50;;;;;;500877;237;1070;-46
2021/04/09 02:10:38;;;;;;;;;;;18.20;38.50;;;;;;500480;237;1071;-45
2021/04/09 02:12:39;;;;;;;;;;;18.20;38.60;;;;;;500642;237;1021;-45
2021/04/09 02:14:40;;;;;;;;;;;18.10;38.60;;;;;;500433;237;1057;-45
2021/04/09 02:16:41;;;;;;;;;;;18.10;38.50;;;;;;500422;237;1027;-45
2021/04/09 02:18:43;;;;;;;;;;;18.10;38.60;;;;;;500595;237;989;-45
2021/04/09 02:20:44;;;;;;;;;;;18.10;38.60;;;;;;500390;237;2235;-45
2021/04/09 02:22:45;;;;;;;;;;;18.00;38.70;;;;;;500895;237;1183;-46
2021/04/09 02:24:48;;;;;;;;;;;18.00;38.70;;;;;;500688;237;1054;-45
2021/04/09 02:26:48;;;;;;;;;;;18.00;38.70;;;;;;500263;237;1877;-45
2021/04/09 02:28:49;;;;;;;;;;;18.00;38.60;;;;;;500381;237;1063;-45
2021/04/09 02:31:03;;;;;;;;;;;18.00;38.70;;;;;;500329;237;1067;-45
2021/04/09 02:33:04;;;;;;;;;;;18.00;38.70;;;;;;500366;237;1041;-45
2021/04/09 02:35:05;;;;;;;;;;;18.00;38.80;;;;;;500605;237;1158;-45
2021/04/09 02:37:06;;;;;;;;;;;17.90;38.80;;;;;;500511;237;1330;-45
2021/04/09 02:39:08;;;;;;;;;;;17.90;38.80;;;;;;500406;237;1056;-45
2021/04/09 02:41:09;;;;;;;;;;;17.90;38.80;;;;;;500352;237;2098;-45
2021/04/09 02:43:10;;;;;;;;;;;17.90;38.80;;;;;;500893;237;1065;-45
2021/04/09 02:45:11;;;;;;;;;;;17.90;38.80;;;;;;500388;237;1087;-45
2021/04/09 02:47:13;;;;;;;;;;;17.90;38.80;;;;;;500339;237;1415;-45
2021/04/09 02:49:14;;;;;;;;;;;17.80;38.80;;;;;;500419;237;1274;-45
2021/04/09 02:51:15;;;;;;;;;;;17.80;38.80;;;;;;500525;237;1065;-45
2021/04/09 02:53:17;;;;;;;;;;;17.80;38.80;;;;;;500458;237;998;-45
2021/04/09 02:55:18;;;;;;;;;;;17.80;38.90;;;;;;500408;237;1166;-45
2021/04/09 02:57:19;;;;;;;;;;;17.80;38.90;;;;;;500294;237;1279;-46
2021/04/09 02:59:20;;;;;;;;;;;17.80;38.90;;;;;;500411;237;1102;-45
2021/04/09 03:01:23;;;;;;;;;;;17.80;38.90;;;;;;500276;237;2175;-45
2021/04/09 03:03:23;;;;;;;;;;;17.70;38.90;;;;;;500618;237;2005;-45
2021/04/09 03:05:24;;;;;;;;;;;17.70;38.90;;;;;;500543;237;1338;-45
2021/04/09 03:07:26;;;;;;;;;;;17.70;38.90;;;;;;500380;237;1018;-45
2021/04/09 03:09:27;;;;;;;;;;;17.70;38.90;;;;;;500891;237;1031;-45
2021/04/09 03:11:28;;;;;;;;;;;17.70;38.80;;;;;;500563;237;1311;-45
2021/04/09 03:13:30;;;;;;;;;;;17.80;38.80;;;;;;500438;237;1081;-46
2021/04/09 03:15:31;;;;;;;;;;;18.10;38.20;;;;;;500812;237;1043;-45
2021/04/09 03:17:32;;;;;;;;;;;18.60;37.30;;;;;;500867;237;1040;-45
2021/04/09 03:19:33;;;;;;;;;;;18.90;36.60;;;;;;500474;237;1010;-46
2021/04/09 03:21:35;;;;;;;;;;;19.10;36.00;;;;;;500304;237;2140;-46
2021/04/09 03:23:36;;;;;;;;;;;19.30;35.70;;;;;;500664;237;1055;-46
2021/04/09 03:25:37;;;;;;;;;;;19.50;35.40;;;;;;500351;237;1006;-45
2021/04/09 03:27:38;;;;;;;;;;;19.60;35.20;;;;;;500404;237;1397;-46
2021/04/09 03:29:40;;;;;;;;;;;19.70;35.10;;;;;;500389;237;1004;-46
2021/04/09 03:31:41;;;;;;;;;;;19.80;34.90;;;;;;500262;237;1217;-46
2021/04/09 03:33:42;;;;;;;;;;;19.80;34.80;;;;;;500555;237;973;-46
2021/04/09 03:35:44;;;;;;;;;;;19.90;34.70;;;;;;500596;237;1175;-46
2021/04/09 03:37:45;;;;;;;;;;;20.00;34.60;;;;;;500493;237;1340;-46
2021/04/09 03:39:46;;;;;;;;;;;20.00;34.40;;;;;;500808;237;2133;-46
2021/04/09 03:41:47;;;;;;;;;;;20.00;34.30;;;;;;500457;237;1103;-46
2021/04/09 03:43:49;;;;;;;;;;;20.10;34.20;;;;;;500792;237;1046;-46
2021/04/09 03:45:50;;;;;;;;;;;20.10;34.20;;;;;;500312;237;1116;-46
2021/04/09 03:47:51;;;;;;;;;;;20.20;34.10;;;;;;500382;237;1018;-46
2021/04/09 03:49:53;;;;;;;;;;;20.20;34.00;;;;;;500427;237;1070;-46
2021/04/09 03:51:54;;;;;;;;;;;20.30;34.00;;;;;;500274;237;1459;-46
2021/04/09 03:53:55;;;;;;;;;;;20.30;33.90;;;;;;500457;237;1330;-46
2021/04/09 03:55:56;;;;;;;;;;;20.30;33.80;;;;;;500606;237;1158;-46
2021/04/09 03:57:58;;;;;;;;;;;20.40;33.80;;;;;;500401;237;1115;-45
2021/04/09 03:59:59;;;;;;;;;;;20.40;33.80;;;;;;500404;237;2137;-46
2021/04/09 04:02:01;;;;;;;;;;;20.40;33.70;;;;;;500346;237;1324;-46
2021/04/09 04:04:02;;;;;;;;;;;20.50;33.70;;;;;;500877;237;1095;-46
2021/04/09 04:06:03;;;;;;;;;;;20.50;33.70;;;;;;500501;237;1294;-46
2021/04/09 04:08:04;;;;;;;;;;;20.50;33.60;;;;;;500416;237;973;-46
2021/04/09 04:10:05;;;;;;;;;;;20.50;33.60;;;;;;500365;237;1670;-45
2021/04/09 04:12:07;;;;;;;;;;;20.50;33.50;;;;;;500397;237;1119;-46
2021/04/09 04:14:08;;;;;;;;;;;20.50;33.50;;;;;;500341;237;1062;-46
2021/04/09 04:16:09;;;;;;;;;;;20.60;33.50;;;;;;500357;237;1068;-46
2021/04/09 04:18:10;;;;;;;;;;;20.60;33.50;;;;;;500755;237;1107;-46
2021/04/09 04:20:12;;;;;;;;;;;20.60;33.50;;;;;;500338;237;2183;-46
2021/04/09 04:22:13;;;;;;;;;;;20.60;33.40;;;;;;500354;237;1275;-46
2021/04/09 04:24:14;;;;;;;;;;;20.70;33.40;;;;;;500388;237;1028;-46
2021/04/09 04:26:16;;;;;;;;;;;20.70;33.40;;;;;;500446;237;1133;-46
2021/04/09 04:28:17;;;;;;;;;;;20.70;33.40;;;;;;500365;237;1039;-45
2021/04/09 04:30:18;;;;;;;;;;;20.70;33.40;;;;;;500430;237;1085;-46
2021/04/09 04:32:20;;;;;;;;;;;20.70;33.30;;;;;;500386;237;1227;-46
2021/04/09 04:34:21;;;;;;;;;;;20.70;33.30;;;;;;500364;237;1073;-46
2021/04/09 04:36:22;;;;;;;;;;;20.70;33.30;;;;;;500364;237;1155;-45
2021/04/09 04:38:23;;;;;;;;;;;20.70;33.30;;;;;;500467;237;1203;-46
2021/04/09 04:40:25;;;;;;;;;;;20.70;33.30;;;;;;500274;237;2208;-46
2021/04/09 04:42:26;;;;;;;;;;;20.80;33.20;;;;;;500257;237;1208;-46
2021/04/09 04:44:27;;;;;;;;;;;20.80;33.30;;;;;;500286;237;964;-46
2021/04/09 04:46:28;;;;;;;;;;;20.80;33.30;;;;;;500225;237;1346;-46
2021/04/09 04:48:30;;;;;;;;;;;20.80;33.20;;;;;;500220;237;1066;-46
2021/04/09 04:50:31;;;;;;;;;;;20.80;33.20;;;;;;500153;237;1035;-46
2021/04/09 04:52:32;;;;;;;;;;;20.80;33.20;;;;;;500133;237;1207;-46
2021/04/09 04:54:33;;;;;;;;;;;20.80;33.20;;;;;;500304;237;1170;-46
2021/04/09 04:56:35;;;;;;;;;;;20.80;33.20;;;;;;500084;237;1469;-46
2021/04/09 04:58:36;;;;;;;;;;;20.90;33.20;;;;;;500506;237;1138;-46
2021/04/09 05:00:37;;;;;;;;;;;20.90;33.20;;;;;;500326;237;2188;-46
2021/04/09 05:02:39;;;;;;;;;;;20.90;33.20;;;;;;500109;237;1147;-46
2021/04/09 05:04:40;;;;;;;;;;;20.90;33.10;;;;;;500272;237;1086;-46
2021/04/09 05:06:41;;;;;;;;;;;20.90;33.10;;;;;;500083;237;1121;-46
2021/04/09 05:08:42;;;;;;;;;;;20.90;33.10;;;;;;500244;237;1143;-46
2021/04/09 05:10:44;;;;;;;;;;;20.90;33.10;;;;;;500625;237;1335;-46
2021/04/09 05:12:45;;;;;;;;;;;20.90;33.10;;;;;;500371;237;1112;-46
2021/04/09 05:14:46;;;;;;;;;;;20.90;33.00;;;;;;500390;237;1084;-46
2021/04/09 05:16:48;;;;;;;;;;;21.00;33.10;;;;;;500185;237;1378;-46
2021/04/09 05:18:49;;;;;;;;;;;20.90;33.10;;;;;;500181;237;1066;-46
2021/04/09 05:20:50;;;;;;;;;;;21.00;33.00;;;;;;500004;237;2207;-46
2021/04/09 05:22:52;;;;;;;;;;;21.00;33.00;;;;;;500065;237;1194;-46
2021/04/09 05:24:53;;;;;;;;;;;21.00;33.00;;;;;;499897;238;1372;-46
2021/04/09 05:26:54;;;;;;;;;;;21.00;33.00;;;;;;500027;237;1079;-46
2021/04/09 05:28:56;;;;;;;;;;;21.00;33.00;;;;;;500137;237;1119;-46
2021/04/09 05:30:57;;;;;;;;;;;21.00;33.00;;;;;;499983;237;1106;-46
2021/04/09 05:32:58;;;;;;;;;;;21.00;33.00;;;;;;500128;237;1087;-46
2021/04/09 05:35:00;;;;;;;;;;;21.00;33.00;;;;;;500435;237;1057;-46
2021/04/09 05:37:01;;;;;;;;;;;21.00;33.00;;;;;;500149;237;1230;-45
2021/04/09 05:39:02;;;;;;;;;;;21.00;33.00;;;;;;500127;237;1044;-46
2021/04/09 05:41:03;;;;;;;;;;;21.00;32.90;;;;;;500077;237;2184;-46
2021/04/09 05:43:07;;;;;;;;;;;21.00;33.00;;;;;;500122;237;1093;-46
2021/04/09 05:45:06;;;;;;;;;;;21.00;33.00;;;;;;500152;237;2074;-46
2021/04/09 05:47:08;;;;;;;;;;;21.00;33.00;;;;;;500119;237;1092;-45
2021/04/09 05:49:08;;;;;;;;;;;21.10;33.00;;;;;;500075;237;1395;-45
2021/04/09 05:51:10;;;;;;;;;;;21.10;32.90;;;;;;499931;237;1347;-46
2021/04/09 05:53:11;;;;;;;;;;;21.10;32.90;;;;;;500012;237;1227;-46
2021/04/09 05:55:12;;;;;;;;;;;21.10;32.90;;;;;;500320;237;1078;-46
2021/04/09 05:57:14;;;;;;;;;;;21.10;32.90;;;;;;500019;237;1504;-46
2021/04/09 05:59:15;;;;;;;;;;;21.10;33.00;;;;;;500168;237;1062;-46
2021/04/09 06:01:16;;;;;;;;;;;21.10;32.90;;;;;;500030;237;2144;-46
2021/04/09 06:03:17;;;;;;;;;;;21.10;32.90;;;;;;500087;237;1127;-46
2021/04/09 06:05:19;;;;;;;;;;;21.20;32.90;;;;;;499872;237;1027;-46
2021/04/09 06:07:20;;;;;;;;;;;21.20;32.90;;;;;;499844;237;1222;-46
2021/04/09 06:09:22;;;;;;;;;;;21.10;32.90;;;;;;499964;237;1023;-46
2021/04/09 06:11:23;;;;;;;;;;;21.20;32.90;;;;;;499905;237;1189;-46
2021/04/09 06:13:25;;;;;;;;;;;21.20;32.90;;;;;;499838;237;1075;-46
2021/04/09 06:15:26;;;;;;;;;;;21.20;32.90;;;;;;499935;237;1091;-46
2021/04/09 06:17:27;;;;;;;;;;;21.20;32.90;;;;;;499815;237;1343;-46
2021/04/09 06:19:29;;;;;;;;;;;21.20;32.90;;;;;;500047;237;1078;-46
2021/04/09 06:21:30;;;;;;;;;;;21.20;32.90;;;;;;499964;237;2188;-46
2021/04/09 06:23:32;;;;;;;;;;;21.20;32.90;;;;;;499983;237;1226;-46
2021/04/09 06:25:33;;;;;;;;;;;21.20;32.90;;;;;;499875;237;1092;-46
2021/04/09 06:27:34;;;;;;;;;;;21.20;32.90;;;;;;499965;237;1156;-46
2021/04/09 06:29:35;;;;;;;;;;;21.20;32.80;;;;;;499902;237;1244;-45
2021/04/09 06:31:37;;;;;;;;;;;21.20;32.80;;;;;;500028;237;1046;-46
2021/04/09 06:33:38;;;;;;;;;;;21.20;32.90;;;;;;499915;237;1094;-45
2021/04/09 06:35:40;;;;;;;;;;;21.20;32.90;;;;;;500017;237;1098;-46
2021/04/09 06:37:42;;;;;;;;;;;21.20;32.90;;;;;;499852;237;1294;-46
2021/04/09 06:39:43;;;;;;;;;;;21.20;32.80;;;;;;499823;237;1108;-45
2021/04/09 06:41:44;;;;;;;;;;;21.20;32.80;;;;;;499702;237;2124;-46
2021/04/09 06:43:45;;;;;;;;;;;21.30;32.80;;;;;;499858;237;1212;-46
2021/04/09 06:45:47;;;;;;;;;;;21.20;32.70;;;;;;499780;237;1054;-46
2021/04/09 06:47:48;;;;;;;;;;;21.20;32.80;;;;;;499735;237;1093;-45
2021/04/09 06:49:50;;;;;;;;;;;21.20;32.80;;;;;;499758;237;1106;-45
2021/04/09 06:51:51;;;;;;;;;;;21.30;32.80;;;;;;499594;237;1212;-46
2021/04/09 06:53:52;;;;;;;;;;;21.20;32.70;;;;;;499974;237;1171;-46
2021/04/09 06:55:53;;;;;;;;;;;21.30;32.80;;;;;;499713;237;1137;-45
2021/04/09 06:57:55;;;;;;;;;;;21.20;32.70;;;;;;499664;237;1145;-46
2021/04/09 06:59:56;;;;;;;;;;;21.30;32.80;;;;;;499569;237;1116;-45
2021/04/09 07:01:58;;;;;;;;;;;21.30;32.80;;;;;;499471;237;2188;-46
2021/04/09 07:03:59;;;;;;;;;;;21.30;32.70;;;;;;499740;237;1114;-46
2021/04/09 07:06:01;;;;;;;;;;;21.30;32.80;;;;;;499577;237;1203;-46
2021/04/09 07:08:02;;;;;;;;;;;21.30;32.70;;;;;;499800;237;1141;-46
2021/04/09 07:10:03;;;;;;;;;;;21.30;32.70;;;;;;499873;237;1078;-46
2021/04/09 07:12:05;;;;;;;;;;;21.30;32.70;;;;;;499863;237;1090;-46
2021/04/09 07:14:06;;;;;;;;;;;21.30;32.70;;;;;;499696;237;1059;-46
2021/04/09 07:16:07;;;;;;;;;;;21.30;32.80;;;;;;499609;237;1148;-46
2021/04/09 07:18:09;;;;;;;;;;;21.30;32.80;;;;;;499387;237;1249;-45
2021/04/09 07:20:10;;;;;;;;;;;21.30;32.80;;;;;;499459;237;1146;-46
2021/04/09 07:22:11;;;;;;;;;;;21.30;32.70;;;;;;499510;237;2217;-46
2021/04/09 07:24:12;;;;;;;;;;;21.40;32.80;;;;;;499567;237;1242;-46
2021/04/09 07:26:14;;;;;;;;;;;21.30;32.70;;;;;;499531;237;1076;-46
2021/04/09 07:28:15;;;;;;;;;;;21.30;32.70;;;;;;499655;237;1310;-46
2021/04/09 07:30:16;;;;;;;;;;;21.30;32.70;;;;;;499846;237;1076;-45
2021/04/09 07:32:18;;;;;;;;;;;21.40;32.80;;;;;;499589;237;1356;-46
2021/04/09 07:34:19;;;;;;;;;;;21.30;32.70;;;;;;499283;237;1685;-46
2021/04/09 07:36:20;;;;;;;;;;;21.30;32.70;;;;;;499605;237;1221;-46
2021/04/09 07:38:22;;;;;;;;;;;21.30;32.70;;;;;;499636;237;1210;-46
2021/04/09 07:40:23;;;;;;;;;;;21.40;32.80;;;;;;499588;237;1083;-46
2021/04/09 07:42:24;;;;;;;;;;;21.40;32.70;;;;;;499879;237;2199;-46
2021/04/09 07:44:26;;;;;;;;;;;21.40;32.70;;;;;;499781;237;1071;-46
2021/04/09 07:46:27;;;;;;;;;;;21.40;32.70;;;;;;499577;237;1141;-46
2021/04/09 07:48:28;;;;;;;;;;;21.40;32.70;;;;;;499654;237;1239;-46
2021/04/09 07:50:29;;;;;;;;;;;21.40;32.70;;;;;;499563;237;1061;-45
2021/04/09 07:52:33;;;;;;;;;;;21.40;32.70;;;;;;499662;237;1224;-46
2021/04/09 07:54:32;;;;;;;;;;;21.40;32.80;;;;;;499505;237;1937;-46
2021/04/09 07:56:33;;;;;;;;;;;21.40;32.70;;;;;;499464;237;1386;-46
2021/04/09 07:58:35;;;;;;;;;;;21.40;32.70;;;;;;499678;237;1091;-46
2021/04/09 08:00:36;;;;;;;;;;;21.40;32.70;;;;;;499547;237;1161;-46
2021/04/09 08:02:37;;;;;;;;;;;21.40;32.70;;;;;;499440;237;2223;-46
2021/04/09 08:04:39;;;;;;;;;;;21.50;32.70;;;;;;499567;237;1066;-46
2021/04/09 08:06:40;;;;;;;;;;;21.40;32.60;;;;;;499510;237;1368;-46
2021/04/09 08:08:41;;;;;;;;;;;21.40;32.70;;;;;;500240;237;1173;-45
2021/04/09 08:10:43;;;;;;;;;;;21.40;32.70;;;;;;500326;237;1247;-46
2021/04/09 08:12:44;;;;;;;;;;;21.40;32.70;;;;;;499958;237;1145;-46
2021/04/09 08:14:48;;;;;;;;;;;21.40;32.70;;;;;;499484;237;1038;-46
2021/04/09 08:16:46;;;;;;;;;;;21.40;32.70;;;;;;499375;237;2173;-46
2021/04/09 08:18:48;;;;;;;;;;;21.40;32.70;;;;;;499834;237;1063;-46
2021/04/09 08:20:49;;;;;;;;;;;21.50;32.70;;;;;;499471;237;1250;-46
2021/04/09 08:22:50;;;;;;;;;;;21.50;32.70;;;;;;499583;237;2176;-46
2021/04/09 08:24:51;;;;;;;;;;;21.50;32.70;;;;;;499734;237;1121;-46
2021/04/09 08:26:53;;;;;;;;;;;21.50;32.70;;;;;;499736;237;1149;-46
2021/04/09 08:28:54;;;;;;;;;;;21.50;32.70;;;;;;499829;237;1179;-45
2021/04/09 08:30:55;;;;;;;;;;;21.50;32.70;;;;;;499697;237;1131;-45
2021/04/09 08:32:57;;;;;;;;;;;21.50;32.60;;;;;;499648;237;1197;-46
2021/04/09 08:34:58;;;;;;;;;;;21.50;32.70;;;;;;499719;237;1915;-46
2021/04/09 08:36:59;;;;;;;;;;;21.50;32.70;;;;;;499665;237;1282;-46
2021/04/09 08:39:01;;;;;;;;;;;21.50;32.60;;;;;;498934;237;1164;-46
2021/04/09 08:41:02;;;;;;;;;;;21.50;32.60;;;;;;499474;237;1347;-46
2021/04/09 08:43:03;;;;;;;;;;;21.50;32.60;;;;;;499957;237;2175;-46
2021/04/09 08:45:05;;;;;;;;;;;21.50;32.50;;;;;;499689;237;1163;-45
2021/04/09 08:47:07;;;;;;;;;;;21.50;32.60;;;;;;499426;237;1283;-46
2021/04/09 08:49:07;;;;;;;;;;;21.60;32.60;;;;;;499749;237;2238;-45
2021/04/09 08:51:09;;;;;;;;;;;21.50;32.60;;;;;;499681;237;1289;-46
2021/04/09 08:53:10;;;;;;;;;;;21.50;32.60;;;;;;500358;237;869;-46
2021/04/09 08:55:11;;;;;;;;;;;21.50;32.60;;;;;;499700;237;1055;-46
2021/04/09 08:57:12;;;;;;;;;;;21.60;32.60;;;;;;499484;237;1146;-46
2021/04/09 08:59:14;;;;;;;;;;;21.60;32.60;;;;;;499631;237;1074;-46
2021/04/09 09:01:15;;;;;;;;;;;21.50;32.50;;;;;;499658;237;1100;-45
2021/04/09 09:03:16;;;;;;;;;;;21.50;32.60;;;;;;499502;237;2113;-46
2021/04/09 09:05:18;;;;;;;;;;;21.50;32.60;;;;;;499675;237;1073;-46
2021/04/09 09:07:19;;;;;;;;;;;21.60;32.60;;;;;;499642;237;1092;-46
2021/04/09 09:09:20;;;;;;;;;;;21.60;32.60;;;;;;499625;237;1138;-46
2021/04/09 09:11:21;;;;;;;;;;;21.50;32.60;;;;;;499793;237;1091;-46
2021/04/09 09:13:23;;;;;;;;;;;21.50;32.60;;;;;;499804;237;1078;-46
2021/04/09 09:15:24;;;;;;;;;;;21.60;32.60;;;;;;499761;237;1078;-46
2021/04/09 09:17:25;;;;;;;;;;;21.60;32.60;;;;;;499619;237;1233;-45
2021/04/09 09:19:26;;;;;;;;;;;21.60;32.60;;;;;;499739;237;1167;-46
2021/04/09 09:21:28;;;;;;;;;;;21.60;32.60;;;;;;499597;237;1282;-46
2021/04/09 09:23:29;;;;;;;;;;;21.60;32.60;;;;;;499329;237;2183;-46
2021/04/09 09:25:31;;;;;;;;;;;21.60;32.50;;;;;;499594;237;1204;-45
2021/04/09 09:27:32;;;;;;;;;;;21.60;32.50;;;;;;499724;237;1153;-46
2021/04/09 09:29:33;;;;;;;;;;;21.60;32.50;;;;;;499523;237;1098;-46
2021/04/09 09:31:34;;;;;;;;;;;21.60;32.60;;;;;;499602;237;1213;-46
2021/04/09 09:33:36;;;;;;;;;;;21.60;32.60;;;;;;499996;237;1190;-46
2021/04/09 09:35:37;;;;;;;;;;;21.60;32.60;;;;;;499491;237;1090;-45
2021/04/09 09:37:39;;;;;;;;;;;21.60;32.60;;;;;;499426;237;1110;-45
2021/04/09 09:39:40;;;;;;;;;;;21.60;32.50;;;;;;499512;237;2268;-46
2021/04/09 09:41:41;;;;;;;;;;;21.60;32.60;;;;;;499445;237;1429;-46
2021/04/09 09:43:43;;;;;;;;;;;21.60;32.60;;;;;;499579;237;2180;-46
2021/04/09 09:45:43;;;;;;;;;;;21.60;32.60;;;;;;499453;237;2250;-45
2021/04/09 09:47:45;;;;;;;;;;;21.60;32.60;;;;;;499432;237;1102;-46
2021/04/09 09:49:46;;;;;;;;;;;21.60;32.50;;;;;;499594;237;1098;-46
2021/04/09 09:51:48;;;;;;;;;;;21.60;32.50;;;;;;499581;237;1220;-46
2021/04/09 09:53:49;;;;;;;;;;;21.60;32.50;;;;;;499449;237;1110;-45
2021/04/09 09:55:52;;;;;;;;;;;21.60;32.60;;;;;;499470;237;1308;-46
2021/04/09 09:57:52;;;;;;;;;;;21.60;32.60;;;;;;499323;237;1518;-46
2021/04/09 09:59:53;;;;;;;;;;;21.60;32.50;;;;;;499510;237;1300;-46
2021/04/09 10:01:54;;;;;;;;;;;21.60;32.50;;;;;;499404;237;2144;-45
2021/04/09 10:03:55;;;;;;;;;;;21.60;32.50;;;;;;499507;237;1292;-44
2021/04/09 10:05:57;;;;;;;;;;;21.60;32.60;;;;;;499535;237;1319;-43
2021/04/09 10:07:58;;;;;;;;;;;21.60;32.50;;;;;;499517;237;1109;-44
2021/04/09 10:09:59;;;;;;;;;;;21.60;32.50;;;;;;499531;237;1153;-44
2021/04/09 10:12:00;;;;;;;;;;;21.60;32.60;;;;;;499543;237;1169;-44
2021/04/09 10:14:02;;;;;;;;;;;21.60;32.60;;;;;;499668;237;1051;-46
2021/04/09 10:16:03;;;;;;;;;;;21.60;32.60;;;;;;499388;237;1368;-46
2021/04/09 10:18:04;;;;;;;;;;;21.60;32.60;;;;;;499423;237;1092;-46
2021/04/09 10:20:06;;;;;;;;;;;21.60;32.60;;;;;;499720;237;1055;-46
2021/04/09 10:22:07;;;;;;;;;;;21.60;32.50;;;;;;499705;237;2175;-46
2021/04/09 10:24:08;;;;;;;;;;;21.60;32.50;;;;;;499765;237;1053;-46
2021/04/09 10:26:09;;;;;;;;;;;21.60;32.50;;;;;;499631;237;1232;-46
2021/04/09 10:28:11;;;;;;;;;;;21.60;32.50;;;;;;499817;237;1234;-46
2021/04/09 10:30:12;;;;;;;;;;;21.60;32.60;;;;;;499689;237;1084;-46
2021/04/09 10:32:14;;;;;;;;;;;21.60;32.60;;;;;;499564;237;1312;-46
2021/04/09 10:34:15;;;;;;;;;;;21.60;32.50;;;;;;499601;237;1214;-46
2021/04/09 10:36:16;;;;;;;;;;;21.60;32.60;;;;;;499554;237;1148;-46
2021/04/09 10:38:17;;;;;;;;;;;21.60;32.60;;;;;;499708;237;1121;-44
2021/04/09 10:40:19;;;;;;;;;;;21.60;32.60;;;;;;499680;237;1140;-44
2021/04/09 10:42:20;;;;;;;;;;;21.70;32.60;;;;;;499646;237;2179;-44
2021/04/09 10:44:21;;;;;;;;;;;21.70;32.30;;;;;;499518;237;1033;-44
2021/04/09 10:46:22;;;;;;;;;;;21.40;32.90;;;;;;499467;237;1309;-44
2021/04/09 10:48:24;;;;;;;;;;;20.90;33.70;;;;;;499601;237;1102;-46
2021/04/09 10:50:25;;;;;;;;;;;20.40;34.40;;;;;;499640;237;1308;-45
2021/04/09 10:52:26;;;;;;;;;;;20.20;35.00;;;;;;499711;237;1495;-46
2021/04/09 10:54:28;;;;;;;;;;;20.00;35.30;;;;;;499804;237;1097;-45
2021/04/09 10:56:29;;;;;;;;;;;19.90;35.60;;;;;;499356;237;1302;-45
2021/04/09 10:58:30;;;;;;;;;;;19.70;35.80;;;;;;499415;237;1233;-46
2021/04/09 11:00:31;;;;;;;;;;;19.60;35.90;;;;;;499324;237;1336;-45
2021/04/09 11:02:33;;;;;;;;;;;19.60;36.10;;;;;;499511;237;2180;-45
2021/04/09 11:04:34;;;;;;;;;;;19.50;36.20;;;;;;499732;237;1085;-46
2021/04/09 11:06:35;;;;;;;;;;;19.40;36.30;;;;;;499659;237;1402;-45
2021/04/09 11:08:38;;;;;;;;;;;19.30;36.40;;;;;;499775;237;1113;-46
2021/04/09 11:10:39;;;;;;;;;;;19.30;36.50;;;;;;499671;237;1362;-45
2021/04/09 11:12:40;;;;;;;;;;;19.30;36.50;;;;;;499759;237;1077;-46
2021/04/09 11:14:42;;;;;;;;;;;19.30;36.40;;;;;;499628;237;1125;-45
2021/04/09 11:16:43;;;;;;;;;;;19.30;36.50;;;;;;499627;237;1330;-45
2021/04/09 11:18:44;;;;;;;;;;;19.20;36.60;;;;;;500051;237;1068;-45
2021/04/09 11:20:46;;;;;;;;;;;19.20;36.70;;;;;;499697;237;1075;-45
2021/04/09 11:22:47;;;;;;;;;;;19.10;36.70;;;;;;499541;237;2176;-45
2021/04/09 11:24:48;;;;;;;;;;;19.10;36.70;;;;;;499976;237;1087;-46
2021/04/09 11:26:49;;;;;;;;;;;19.10;36.70;;;;;;499668;237;1278;-45
2021/04/09 11:28:51;;;;;;;;;;;19.00;36.80;;;;;;499776;237;1128;-45
2021/04/09 11:30:52;;;;;;;;;;;19.00;36.80;;;;;;499647;237;1353;-45
2021/04/09 11:32:53;;;;;;;;;;;19.00;36.80;;;;;;499549;237;1172;-46
2021/04/09 11:34:55;;;;;;;;;;;19.00;36.90;;;;;;499624;237;1231;-45
2021/04/09 11:36:57;;;;;;;;;;;19.00;36.90;;;;;;500120;237;1104;-45
2021/04/09 11:38:58;;;;;;;;;;;19.00;36.90;;;;;;499591;237;1171;-45
2021/04/09 11:41:00;;;;;;;;;;;18.90;36.80;;;;;;499501;237;1276;-45
2021/04/09 11:43:01;;;;;;;;;;;18.90;36.90;;;;;;499499;237;2176;-45
2021/04/09 11:45:02;;;;;;;;;;;18.90;36.90;;;;;;499774;237;1050;-45
2021/04/09 11:47:03;;;;;;;;;;;18.90;36.90;;;;;;499725;237;1172;-45
2021/04/09 11:49:05;;;;;;;;;;;18.90;37.00;;;;;;499827;237;1244;-46
2021/04/09 11:51:06;;;;;;;;;;;18.90;37.00;;;;;;499736;237;1091;-45
2021/04/09 11:53:08;;;;;;;;;;;18.80;37.00;;;;;;499721;237;1084;-45
2021/04/09 11:55:09;;;;;;;;;;;18.80;37.00;;;;;;499593;237;1127;-45
2021/04/09 11:57:10;;;;;;;;;;;18.80;37.00;;;;;;499656;237;1187;-45